Aviation Digital Data Service (ADDS)

Output produced by METARs form (1255 UTC 19 February 2020)
found at http://aviationweather.gov/metar/data/
 
TAF EPDA 191100Z 1912/1921 21013KT 9999 BKN020 
     TEMPO 1912/1921 5000 RA BR BKN015 
     PROB30 
     TEMPO 1915/1918 21015G25KT 4000 SHRA BKN010CB 
     BECMG 1913/1915 27010KT